Time,TemperatureF,DewpointF,PressureIn,WindDirection,WindDirectionDegrees,WindSpeedMPH,WindSpeedGustMPH,Humidity,HourlyPrecipIn,Conditions,Clouds,dailyrainin,SoftwareType,DateUTC
2013-04-11 00:00:00,42.2,40.3,29.66,West,280,2.0,10.0,93,0.01,,CLR,0.51,VWS V14.01,2013-04-11 05:00:00,
2013-04-11 00:04:00,42.2,40.3,29.67,WNW,294,1.0,5.0,93,0.00,,OVC008,0.00,VWS V14.01,2013-04-11 05:04:00,
2013-04-11 00:09:00,42.1,40.0,29.67,NNW,340,9.0,9.0,92,0.00,,OVC008,0.00,VWS V14.01,2013-04-11 05:09:00,
2013-04-11 00:14:00,42.0,39.8,29.66,WNW,301,3.0,9.0,92,0.00,,OVC008,0.00,VWS V14.01,2013-04-11 05:14:00,
2013-04-11 00:19:00,42.0,39.8,29.66,West,272,2.0,9.0,92,0.00,,OVC008,0.00,VWS V14.01,2013-04-11 05:19:00,
2013-04-11 00:24:00,42.0,39.8,29.66,NW,316,1.0,9.0,92,0.00,,OVC008,0.00,VWS V14.01,2013-04-11 05:24:00,
2013-04-11 00:29:00,41.9,39.5,29.65,NNW,346,7.0,16.0,91,0.00,,OVC008,0.00,VWS V14.01,2013-04-11 05:29:00,
2013-04-11 00:30:00,41.8,39.4,29.65,West,275,2.0,16.0,91,0.00,,CLR,0.00,VWS V14.01,2013-04-11 05:30:00,
2013-04-11 00:34:00,41.8,39.7,29.65,NNW,339,3.0,8.0,92,0.00,,OVC008,0.00,VWS V14.01,2013-04-11 05:34:00,
2013-04-11 00:39:00,41.7,39.3,29.64,West,275,2.0,8.0,91,0.00,,OVC008,0.00,VWS V14.01,2013-04-11 05:39:00,
2013-04-11 00:44:00,41.7,39.5,29.64,WNW,296,5.0,10.0,92,0.00,,OVC011,0.00,VWS V14.01,2013-04-11 05:44:00,
2013-04-11 00:49:00,41.7,39.5,29.64,West,276,4.0,10.0,92,0.00,,OVC011,0.00,VWS V14.01,2013-04-11 05:49:00,
2013-04-11 00:55:00,41.6,39.5,29.65,NNW,342,4.0,13.0,92,0.00,,OVC011,0.00,VWS V14.01,2013-04-11 05:55:00,
2013-04-11 01:00:00,41.6,39.5,29.66,WNW,300,0.0,14.0,92,0.00,,OVC011,0.00,VWS V14.01,2013-04-11 06:00:00,
2013-04-11 01:05:00,41.6,39.5,29.66,WNW,298,0.0,5.0,92,0.00,,OVC011,0.00,VWS V14.01,2013-04-11 06:05:00,
2013-04-11 01:10:00,41.6,39.5,29.66,WNW,285,2.0,5.0,92,0.00,,OVC011,0.00,VWS V14.01,2013-04-11 06:10:00,
2013-04-11 01:15:00,41.6,39.5,29.66,West,265,1.0,7.0,92,0.00,,OVC011,0.00,VWS V14.01,2013-04-11 06:15:00,
2013-04-11 01:20:00,41.5,39.3,29.65,NW,306,8.0,10.0,92,0.00,,OVC011,0.00,VWS V14.01,2013-04-11 06:20:00,
2013-04-11 01:25:00,41.4,39.0,29.65,WNW,284,7.0,13.0,91,0.00,,OVC011,0.00,VWS V14.01,2013-04-11 06:25:00,
2013-04-11 01:30:00,41.3,39.2,29.65,WNW,299,2.0,3.0,92,0.00,,OVC011,0.00,VWS V14.01,2013-04-11 06:30:00,
2013-04-11 01:35:00,41.3,39.2,29.64,NNW,330,9.0,12.0,92,0.00,,OVC011,0.00,VWS V14.01,2013-04-11 06:35:00,
2013-04-11 01:40:00,41.2,39.1,29.64,NW,318,5.0,13.0,92,0.00,,OVC009,0.00,VWS V14.01,2013-04-11 06:40:00,
2013-04-11 01:45:00,41.1,39.0,29.64,WNW,303,5.0,13.0,92,0.00,,OVC009,0.00,VWS V14.01,2013-04-11 06:45:00,
2013-04-11 01:50:00,41.1,39.0,29.64,WNW,283,3.0,13.0,92,0.00,,OVC009,0.00,VWS V14.01,2013-04-11 06:50:00,
2013-04-11 01:55:00,41.1,39.2,29.64,WNW,298,4.0,13.0,93,0.00,,OVC009,0.00,VWS V14.01,2013-04-11 06:55:00,
2013-04-11 02:00:00,41.1,39.2,29.64,WNW,296,6.0,13.0,93,0.00,,CLR,0.00,VWS V14.01,2013-04-11 07:00:00,
2013-04-11 02:01:00,41.1,39.2,29.64,West,281,4.0,9.0,93,0.00,,OVC009,0.00,VWS V14.01,2013-04-11 07:01:00,
2013-04-11 02:06:00,40.9,39.0,29.64,WNW,303,4.0,14.0,93,0.00,,OVC009,0.00,VWS V14.01,2013-04-11 07:06:00,
2013-04-11 02:11:00,40.8,38.7,29.64,NW,313,10.0,14.0,92,0.00,,OVC009,0.00,VWS V14.01,2013-04-11 07:11:00,
2013-04-11 02:16:00,40.8,38.9,29.64,WNW,294,2.0,14.0,93,0.00,,OVC009,0.00,VWS V14.01,2013-04-11 07:16:00,
2013-04-11 02:21:00,40.8,38.9,29.64,WNW,297,2.0,14.0,93,0.00,,OVC009,0.00,VWS V14.01,2013-04-11 07:21:00,
2013-04-11 02:26:00,40.8,38.9,29.65,West,265,2.0,14.0,93,0.00,,OVC009,0.00,VWS V14.01,2013-04-11 07:26:00,
2013-04-11 02:30:00,40.8,38.9,29.65,West,274,2.0,14.0,93,0.00,,CLR,0.00,VWS V14.01,2013-04-11 07:30:00,
2013-04-11 02:31:00,40.8,38.9,29.65,NW,309,2.0,4.0,93,0.00,,OVC009,0.00,VWS V14.01,2013-04-11 07:31:00,
2013-04-11 02:37:00,40.8,38.9,29.65,WNW,298,3.0,6.0,93,0.00,,OVC009,0.00,VWS V14.01,2013-04-11 07:37:00,
2013-04-11 02:42:00,40.7,38.8,29.65,WNW,290,2.0,11.0,93,0.00,,OVC007,0.00,VWS V14.01,2013-04-11 07:42:00,
2013-04-11 02:47:00,40.7,38.8,29.66,WNW,288,2.0,11.0,93,0.00,,OVC007,0.00,VWS V14.01,2013-04-11 07:47:00,
2013-04-11 02:52:00,40.7,38.8,29.65,West,268,3.0,11.0,93,0.00,,OVC007,0.00,VWS V14.01,2013-04-11 07:52:00,
2013-04-11 02:57:00,40.5,38.4,29.65,NW,320,7.0,11.0,92,0.00,,OVC007,0.00,VWS V14.01,2013-04-11 07:57:00,
2013-04-11 03:00:00,40.5,38.4,29.65,NW,313,1.0,11.0,92,0.00,,CLR,0.00,VWS V14.01,2013-04-11 08:00:00,
2013-04-11 03:02:00,40.5,38.4,29.65,WNW,288,3.0,12.0,92,0.00,,OVC007,0.00,VWS V14.01,2013-04-11 08:02:00,
2013-04-11 03:07:00,40.5,38.4,29.64,NW,304,2.0,12.0,92,0.00,,OVC007,0.00,VWS V14.01,2013-04-11 08:07:00,
2013-04-11 03:12:00,40.5,38.4,29.64,NW,306,2.0,12.0,92,0.00,,OVC007,0.00,VWS V14.01,2013-04-11 08:12:00,
2013-04-11 03:18:00,40.5,38.6,29.64,WNW,299,4.0,15.0,93,0.00,,OVC007,0.00,VWS V14.01,2013-04-11 08:18:00,
2013-04-11 03:23:00,40.6,38.7,29.64,WNW,294,1.0,15.0,93,0.00,,OVC007,0.00,VWS V14.01,2013-04-11 08:23:00,
2013-04-11 03:28:00,40.6,38.7,29.64,NW,313,3.0,15.0,93,0.00,,OVC007,0.00,VWS V14.01,2013-04-11 08:28:00,
2013-04-11 03:30:00,40.6,38.7,29.64,West,271,2.0,15.0,93,0.00,,CLR,0.00,VWS V14.01,2013-04-11 08:30:00,
2013-04-11 03:33:00,40.6,38.7,29.64,West,279,6.0,8.0,93,0.00,,OVC007,0.00,VWS V14.01,2013-04-11 08:33:00,
2013-04-11 03:38:00,40.6,38.7,29.62,WNW,297,3.0,9.0,93,0.00,,OVC007,0.00,VWS V14.01,2013-04-11 08:38:00,
2013-04-11 03:43:00,40.6,38.7,29.62,NW,315,2.0,9.0,93,0.00,,OVC009,0.00,VWS V14.01,2013-04-11 08:43:00,
2013-04-11 03:48:00,40.5,38.6,29.62,West,279,4.0,13.0,93,0.00,,OVC009,0.00,VWS V14.01,2013-04-11 08:48:00,
2013-04-11 03:53:00,40.4,38.5,29.61,NW,315,7.0,13.0,93,0.00,,OVC009,0.00,VWS V14.01,2013-04-11 08:53:00,
2013-04-11 03:59:00,40.4,38.8,29.61,NW,306,0.0,13.0,94,0.00,,OVC009,0.00,VWS V14.01,2013-04-11 08:59:00,
2013-04-11 04:00:00,40.4,38.8,29.61,WNW,285,1.0,13.0,94,0.00,,CLR,0.00,VWS V14.01,2013-04-11 09:00:00,
2013-04-11 04:04:00,40.3,38.7,29.62,WNW,292,7.0,7.0,94,0.00,,OVC009,0.00,VWS V14.01,2013-04-11 09:04:00,
2013-04-11 04:09:00,40.3,38.7,29.62,NW,312,0.0,9.0,94,0.00,,OVC009,0.00,VWS V14.01,2013-04-11 09:09:00,
2013-04-11 04:14:00,40.3,38.7,29.63,NNW,329,2.0,9.0,94,0.00,,OVC009,0.00,VWS V14.01,2013-04-11 09:14:00,
2013-04-11 04:19:00,40.2,38.6,29.63,WNW,294,1.0,9.0,94,0.00,,OVC009,0.00,VWS V14.01,2013-04-11 09:19:00,
2013-04-11 04:24:00,40.2,38.6,29.61,NNW,342,7.0,9.0,94,0.00,,OVC009,0.00,VWS V14.01,2013-04-11 09:24:00,
2013-04-11 04:29:00,40.1,38.5,29.61,NW,324,4.0,9.0,94,0.00,,OVC009,0.00,VWS V14.01,2013-04-11 09:29:00,
2013-04-11 04:30:00,40.1,38.5,29.61,NW,305,2.0,9.0,94,0.00,,CLR,0.00,VWS V14.01,2013-04-11 09:30:00,
2013-04-11 04:34:00,40.0,38.4,29.60,WNW,290,3.0,8.0,94,0.00,,OVC009,0.00,VWS V14.01,2013-04-11 09:34:00,
2013-04-11 04:39:00,39.9,38.0,29.60,West,264,2.0,11.0,93,0.00,,OVC009,0.00,VWS V14.01,2013-04-11 09:39:00,
2013-04-11 04:44:00,39.8,38.0,29.61,WNW,301,6.0,11.0,93,0.00,,,0.00,VWS V14.01,2013-04-11 09:44:00,
2013-04-11 04:49:00,39.6,37.5,29.62,North,5,4.0,15.0,92,0.00,,,0.00,VWS V14.01,2013-04-11 09:49:00,
2013-04-11 04:54:00,39.5,37.7,29.62,NNW,328,3.0,15.0,93,0.00,,,0.00,VWS V14.01,2013-04-11 09:54:00,
2013-04-11 04:59:00,39.5,37.7,29.63,NW,321,2.0,15.0,93,0.00,,,0.00,VWS V14.01,2013-04-11 09:59:00,
2013-04-11 05:00:00,39.5,37.7,29.63,WNW,282,2.0,15.0,93,0.00,,CLR,0.00,VWS V14.01,2013-04-11 10:00:00,
2013-04-11 05:04:00,39.4,37.5,29.63,WNW,285,2.0,8.0,93,0.00,,,0.00,VWS V14.01,2013-04-11 10:04:00,
2013-04-11 05:09:00,39.3,37.5,29.63,WNW,293,2.0,8.0,93,0.00,,,0.00,VWS V14.01,2013-04-11 10:09:00,
2013-04-11 05:14:00,39.3,37.7,29.64,West,263,1.0,11.0,94,0.00,,,0.00,VWS V14.01,2013-04-11 10:14:00,
2013-04-11 05:19:00,39.2,37.6,29.64,WNW,283,2.0,11.0,94,0.00,,,0.00,VWS V14.01,2013-04-11 10:19:00,
2013-04-11 05:25:00,38.9,37.0,29.64,WNW,288,2.0,11.0,93,0.00,,OVC009,0.00,VWS V14.01,2013-04-11 10:25:00,
2013-04-11 05:30:00,38.8,37.0,29.67,West,276,6.0,11.0,93,0.00,,OVC009,0.00,VWS V14.01,2013-04-11 10:30:00,
2013-04-11 05:35:00,38.7,36.6,29.68,NW,307,7.0,8.0,92,0.00,,OVC009,0.00,VWS V14.01,2013-04-11 10:35:00,
2013-04-11 05:40:00,38.6,36.5,29.68,WNW,287,3.0,10.0,92,0.00,,OVC009,0.00,VWS V14.01,2013-04-11 10:40:00,
2013-04-11 05:45:00,38.6,36.5,29.67,NNW,332,3.0,10.0,92,0.00,,OVC011,0.00,VWS V14.01,2013-04-11 10:45:00,
2013-04-11 05:50:00,38.4,36.0,29.67,NW,319,6.0,12.0,91,0.00,,OVC011,0.00,VWS V14.01,2013-04-11 10:50:00,
2013-04-11 05:55:00,38.3,35.9,29.67,NW,306,4.0,12.0,91,0.00,,-RA,0.00,VWS V14.01,2013-04-11 10:55:00,
2013-04-11 06:00:00,38.2,35.8,29.67,NW,312,6.0,12.0,91,0.00,,-RA,0.00,VWS V14.01,2013-04-11 11:00:00,
2013-04-11 06:05:00,38.1,35.7,29.65,NW,313,3.0,11.0,91,0.00,,OVC011,0.00,VWS V14.01,2013-04-11 11:05:00,
2013-04-11 06:10:00,38.0,35.6,29.65,West,277,1.0,11.0,91,0.00,,OVC011,0.00,VWS V14.01,2013-04-11 11:10:00,
2013-04-11 06:15:00,37.9,35.5,29.65,West,276,3.0,11.0,91,0.00,,OVC011,0.00,VWS V14.01,2013-04-11 11:15:00,
2013-04-11 06:20:00,37.9,35.5,29.65,NW,315,1.0,11.0,91,0.00,,OVC011,0.00,VWS V14.01,2013-04-11 11:20:00,
2013-04-11 06:25:00,37.9,35.5,29.66,NW,309,0.0,11.0,91,0.00,,OVC011,0.00,VWS V14.01,2013-04-11 11:25:00,
2013-04-11 06:30:00,37.9,35.5,29.66,NW,304,4.0,6.0,91,0.00,,OVC011,0.00,VWS V14.01,2013-04-11 11:30:00,
2013-04-11 06:35:00,37.9,35.5,29.68,NW,319,4.0,6.0,91,0.00,,OVC011,0.00,VWS V14.01,2013-04-11 11:35:00,
2013-04-11 06:41:00,37.9,35.5,29.66,WNW,293,2.0,8.0,91,0.00,,OVC011,0.00,VWS V14.01,2013-04-11 11:41:00,
2013-04-11 06:46:00,37.8,35.4,29.67,WNW,299,4.0,12.0,91,0.00,,OVC011,0.00,VWS V14.01,2013-04-11 11:46:00,
2013-04-11 06:51:00,37.8,35.4,29.67,NW,308,0.0,12.0,91,0.00,,OVC011,0.00,VWS V14.01,2013-04-11 11:51:00,
2013-04-11 06:56:00,37.8,35.4,29.67,West,277,2.0,12.0,91,0.00,,OVC011,0.00,VWS V14.01,2013-04-11 11:56:00,
2013-04-11 07:00:00,37.8,35.7,29.66,NW,312,1.0,12.0,92,0.00,,CLR,0.00,VWS V14.01,2013-04-11 12:00:00,
2013-04-11 07:01:00,37.8,35.4,29.65,West,276,0.0,2.0,91,0.00,,OVC009,0.00,VWS V14.01,2013-04-11 12:01:00,
2013-04-11 07:06:00,37.7,35.3,29.65,WNW,285,3.0,11.0,91,0.00,,OVC009,0.00,VWS V14.01,2013-04-11 12:06:00,
2013-04-11 07:12:00,37.7,35.3,29.65,West,271,1.0,11.0,91,0.00,,OVC009,0.00,VWS V14.01,2013-04-11 12:12:00,
2013-04-11 07:17:00,37.6,35.2,29.65,WNW,296,3.0,11.0,91,0.00,,OVC009,0.00,VWS V14.01,2013-04-11 12:17:00,
2013-04-11 07:22:00,37.5,35.1,29.66,West,267,3.0,11.0,91,0.00,,OVC009,0.00,VWS V14.01,2013-04-11 12:22:00,
2013-04-11 07:27:00,37.5,35.1,29.66,West,279,4.0,11.0,91,0.00,,OVC009,0.00,VWS V14.01,2013-04-11 12:27:00,
2013-04-11 07:30:00,37.4,35.0,29.67,West,275,3.0,11.0,91,0.00,,CLR,0.00,VWS V14.01,2013-04-11 12:30:00,
2013-04-11 07:32:00,37.4,35.0,29.67,West,264,5.0,6.0,91,0.00,,OVC009,0.00,VWS V14.01,2013-04-11 12:32:00,
2013-04-11 07:37:00,37.3,34.6,29.67,WNW,288,5.0,6.0,90,0.00,,OVC009,0.00,VWS V14.01,2013-04-11 12:37:00,
2013-04-11 07:42:00,37.2,34.5,29.67,WNW,296,2.0,7.0,90,0.00,,OVC009,0.00,VWS V14.01,2013-04-11 12:42:00,
2013-04-11 07:47:00,37.2,34.8,29.66,WNW,296,3.0,8.0,91,0.00,,OVC009,0.00,VWS V14.01,2013-04-11 12:47:00,
2013-04-11 07:52:00,37.2,34.5,29.66,NW,319,0.0,8.0,90,0.00,,OVC011,0.00,VWS V14.01,2013-04-11 12:52:00,
2013-04-11 07:58:00,37.1,34.4,29.65,West,271,2.0,8.0,90,0.00,,OVC011,0.00,VWS V14.01,2013-04-11 12:58:00,
2013-04-11 08:00:00,37.2,34.5,29.65,North,355,4.0,8.0,90,0.00,,CLR,0.00,VWS V14.01,2013-04-11 13:00:00,
2013-04-11 08:03:00,37.1,34.2,29.65,West,272,1.0,8.0,89,0.00,,OVC011,0.00,VWS V14.01,2013-04-11 13:03:00,
2013-04-11 08:08:00,37.2,34.3,29.65,West,275,2.0,8.0,89,0.00,,OVC011,0.00,VWS V14.01,2013-04-11 13:08:00,
2013-04-11 08:13:00,37.3,34.4,29.65,WNW,290,3.0,8.0,89,0.00,,OVC011,0.00,VWS V14.01,2013-04-11 13:13:00,
2013-04-11 08:18:00,37.5,34.3,29.65,West,269,6.0,8.0,88,0.00,,OVC011,0.00,VWS V14.01,2013-04-11 13:18:00,
2013-04-11 08:23:00,37.5,33.7,29.65,NNW,331,7.0,14.0,86,0.00,,OVC011,0.00,VWS V14.01,2013-04-11 13:23:00,
2013-04-11 08:28:00,37.5,33.7,29.64,WNW,303,1.0,14.0,86,0.00,,OVC011,0.00,VWS V14.01,2013-04-11 13:28:00,
2013-04-11 08:30:00,37.5,33.7,29.64,NW,311,8.0,14.0,86,0.00,,CLR,0.00,VWS V14.01,2013-04-11 13:30:00,
2013-04-11 08:33:00,37.5,33.7,29.64,West,271,3.0,12.0,86,0.00,,OVC011,0.00,VWS V14.01,2013-04-11 13:33:00,
2013-04-11 08:38:00,37.6,33.5,29.64,West,277,2.0,12.0,85,0.00,,OVC011,0.00,VWS V14.01,2013-04-11 13:38:00,
2013-04-11 08:43:00,37.7,33.9,29.65,WNW,299,8.0,12.0,86,0.00,,OVC015,0.00,VWS V14.01,2013-04-11 13:43:00,
2013-04-11 08:48:00,37.8,34.0,29.66,NW,306,2.0,12.0,86,0.00,,OVC015,0.00,VWS V14.01,2013-04-11 13:48:00,
2013-04-11 08:54:00,37.8,33.7,29.66,WNW,284,5.0,12.0,85,0.00,,OVC015,0.00,VWS V14.01,2013-04-11 13:54:00,
2013-04-11 08:59:00,37.9,33.8,29.65,WNW,302,3.0,12.0,85,0.00,,OVC015,0.00,VWS V14.01,2013-04-11 13:59:00,
2013-04-11 09:00:00,37.9,33.8,29.66,NW,323,4.0,12.0,85,0.00,,CLR,0.00,VWS V14.01,2013-04-11 14:00:00,
2013-04-11 09:04:00,38.0,33.9,29.66,WSW,255,3.0,9.0,85,0.00,,OVC015,0.00,VWS V14.01,2013-04-11 14:04:00,
2013-04-11 09:09:00,38.1,34.0,29.66,West,273,2.0,9.0,85,0.00,,OVC015,0.00,VWS V14.01,2013-04-11 14:09:00,
2013-04-11 09:14:00,38.2,33.8,29.66,North,9,6.0,9.0,84,0.00,,OVC015,0.00,VWS V14.01,2013-04-11 14:14:00,
2013-04-11 09:19:00,38.3,33.9,29.67,NW,309,1.0,9.0,84,0.00,,OVC015,0.00,VWS V14.01,2013-04-11 14:19:00,
2013-04-11 09:24:00,38.4,34.0,29.68,West,281,5.0,9.0,84,0.00,,OVC015,0.00,VWS V14.01,2013-04-11 14:24:00,
2013-04-11 09:29:00,38.5,34.1,29.67,WSW,257,4.0,9.0,84,0.00,,OVC015,0.00,VWS V14.01,2013-04-11 14:29:00,
2013-04-11 09:30:00,38.5,34.1,29.67,NW,320,2.0,9.0,84,0.00,,CLR,0.00,VWS V14.01,2013-04-11 14:30:00,
2013-04-11 09:34:00,38.4,33.7,29.66,NW,315,4.0,10.0,83,0.00,,OVC015,0.00,VWS V14.01,2013-04-11 14:34:00,
2013-04-11 09:39:00,38.4,34.0,29.64,NW,311,4.0,10.0,84,0.00,,OVC015,0.00,VWS V14.01,2013-04-11 14:39:00,
2013-04-11 09:44:00,38.4,34.0,29.64,NW,321,3.0,10.0,84,0.00,,OVC015,0.00,VWS V14.01,2013-04-11 14:44:00,
2013-04-11 09:50:00,38.4,34.0,29.64,West,265,7.0,10.0,84,0.00,,OVC015,0.00,VWS V14.01,2013-04-11 14:50:00,
2013-04-11 09:55:00,38.6,34.2,29.66,West,275,3.0,10.0,84,0.00,,OVC015,0.00,VWS V14.01,2013-04-11 14:55:00,
2013-04-11 10:00:00,38.6,34.5,29.67,WNW,297,4.0,10.0,85,0.00,,OVC015,0.00,VWS V14.01,2013-04-11 15:00:00,
2013-04-11 10:05:00,38.8,34.4,29.67,West,268,4.0,10.0,84,0.00,,OVC015,0.00,VWS V14.01,2013-04-11 15:05:00,
2013-04-11 10:10:00,38.9,34.5,29.67,NW,308,2.0,10.0,84,0.00,,OVC015,0.00,VWS V14.01,2013-04-11 15:10:00,
2013-04-11 10:15:00,39.0,34.3,29.67,WNW,290,3.0,10.0,83,0.00,,OVC015,0.00,VWS V14.01,2013-04-11 15:15:00,
2013-04-11 10:20:00,39.1,34.7,29.68,NW,317,1.0,10.0,84,0.00,,OVC015,0.00,VWS V14.01,2013-04-11 15:20:00,
2013-04-11 10:25:00,39.3,34.3,29.67,West,275,3.0,12.0,82,0.00,,OVC015,0.00,VWS V14.01,2013-04-11 15:25:00,
2013-04-11 10:30:00,39.3,34.6,29.68,West,265,2.0,2.0,83,0.00,,OVC015,0.00,VWS V14.01,2013-04-11 15:30:00,
2013-04-11 10:35:00,39.3,34.3,29.68,West,273,2.0,10.0,82,0.00,,OVC015,0.00,VWS V14.01,2013-04-11 15:35:00,
2013-04-11 10:41:00,39.3,34.0,29.67,NNW,348,5.0,12.0,81,0.00,,OVC015,0.00,VWS V14.01,2013-04-11 15:41:00,
2013-04-11 10:46:00,39.3,34.3,29.68,West,271,3.0,12.0,82,0.00,,OVC015,0.00,VWS V14.01,2013-04-11 15:46:00,
2013-04-11 10:51:00,39.3,34.3,29.68,NW,304,4.0,13.0,82,0.00,,OVC015,0.00,VWS V14.01,2013-04-11 15:51:00,
2013-04-11 10:56:00,39.4,34.7,29.69,West,281,1.0,13.0,83,0.00,,OVC015,0.00,VWS V14.01,2013-04-11 15:56:00,
2013-04-11 11:00:00,39.6,34.6,29.68,NW,316,6.0,13.0,82,0.00,,CLR,0.00,VWS V14.01,2013-04-11 16:00:00,
2013-04-11 11:01:00,39.6,34.3,29.68,WNW,286,3.0,6.0,81,0.00,,OVC015,0.00,VWS V14.01,2013-04-11 16:01:00,
2013-04-11 11:06:00,39.8,33.8,29.69,West,278,5.0,10.0,79,0.00,,OVC015,0.00,VWS V14.01,2013-04-11 16:06:00,
2013-04-11 11:12:00,39.8,34.1,29.69,West,270,5.0,10.0,80,0.00,,OVC015,0.00,VWS V14.01,2013-04-11 16:12:00,
2013-04-11 11:17:00,39.8,34.5,29.69,WNW,287,1.0,10.0,81,0.00,,OVC015,0.00,VWS V14.01,2013-04-11 16:17:00,
2013-04-11 11:22:00,40.0,34.3,29.68,WNW,284,3.0,10.0,80,0.00,,OVC015,0.00,VWS V14.01,2013-04-11 16:22:00,
2013-04-11 11:27:00,40.1,34.8,29.68,NW,325,3.0,10.0,81,0.00,,OVC015,0.00,VWS V14.01,2013-04-11 16:27:00,
2013-04-11 11:30:00,40.1,34.4,29.68,WNW,290,5.0,10.0,80,0.00,,CLR,0.00,VWS V14.01,2013-04-11 16:30:00,
2013-04-11 11:32:00,40.1,34.4,29.68,NW,304,3.0,6.0,80,0.00,,OVC015,0.00,VWS V14.01,2013-04-11 16:32:00,
2013-04-11 11:37:00,40.0,34.3,29.69,NW,319,3.0,13.0,80,0.00,,OVC015,0.00,VWS V14.01,2013-04-11 16:37:00,
2013-04-11 11:42:00,40.0,34.3,29.69,WNW,283,6.0,14.0,80,0.00,,OVC017,0.00,VWS V14.01,2013-04-11 16:42:00,
2013-04-11 11:47:00,39.8,34.1,29.69,NNW,327,1.0,14.0,80,0.00,,OVC017,0.00,VWS V14.01,2013-04-11 16:47:00,
2013-04-11 11:52:00,39.9,34.5,29.69,NW,322,7.0,14.0,81,0.00,,OVC017,0.00,VWS V14.01,2013-04-11 16:52:00,
2013-04-11 11:57:00,40.0,35.0,29.69,NW,323,0.0,14.0,82,0.00,,OVC017,0.00,VWS V14.01,2013-04-11 16:57:00,
2013-04-11 12:00:00,40.1,34.8,29.69,West,273,4.0,14.0,81,0.00,,CLR,0.00,VWS V14.01,2013-04-11 17:00:00,
2013-04-11 12:02:00,40.1,34.8,29.69,WNW,303,3.0,4.0,81,0.00,,OVC017,0.00,VWS V14.01,2013-04-11 17:02:00,
2013-04-11 12:07:00,40.4,34.7,29.69,WNW,299,1.0,5.0,80,0.00,,OVC017,0.00,VWS V14.01,2013-04-11 17:07:00,
2013-04-11 12:12:00,40.8,34.8,29.69,WNW,299,2.0,7.0,79,0.00,,OVC017,0.00,VWS V14.01,2013-04-11 17:12:00,
2013-04-11 12:18:00,41.0,35.0,29.69,NNW,339,3.0,11.0,79,0.00,,OVC017,0.00,VWS V14.01,2013-04-11 17:18:00,
2013-04-11 12:23:00,41.2,35.2,29.69,WNW,294,2.0,11.0,79,0.00,,OVC017,0.00,VWS V14.01,2013-04-11 17:23:00,
2013-04-11 12:28:00,41.6,35.6,29.68,WNW,302,8.0,11.0,79,0.00,,OVC017,0.00,VWS V14.01,2013-04-11 17:28:00,
2013-04-11 12:30:00,41.8,35.8,29.68,NNW,335,2.0,11.0,79,0.00,,CLR,0.00,VWS V14.01,2013-04-11 17:30:00,
2013-04-11 12:33:00,42.1,36.1,29.68,West,263,6.0,6.0,79,0.00,,OVC017,0.00,VWS V14.01,2013-04-11 17:33:00,
2013-04-11 12:38:00,42.3,35.9,29.68,WNW,296,3.0,7.0,78,0.00,,OVC017,0.00,VWS V14.01,2013-04-11 17:38:00,
2013-04-11 12:43:00,42.4,35.7,29.67,WSW,255,5.0,10.0,77,0.00,,OVC017,0.00,VWS V14.01,2013-04-11 17:43:00,
2013-04-11 12:48:00,42.4,36.0,29.68,West,271,7.0,10.0,78,0.00,,OVC017,0.00,VWS V14.01,2013-04-11 17:48:00,
2013-04-11 12:53:00,42.8,36.8,29.67,NNW,343,2.0,10.0,79,0.00,,OVC017,0.00,VWS V14.01,2013-04-11 17:53:00,
2013-04-11 12:58:00,44.2,37.5,29.67,West,266,4.0,10.0,77,0.00,,OVC017,0.00,VWS V14.01,2013-04-11 17:58:00,
2013-04-11 13:00:00,44.4,38.3,29.67,NW,315,7.0,10.0,79,0.00,,CLR,0.00,VWS V14.01,2013-04-11 18:00:00,
2013-04-11 13:03:00,44.7,37.3,29.68,SW,236,8.0,11.0,75,0.00,,OVC017,0.00,VWS V14.01,2013-04-11 18:03:00,
2013-04-11 13:08:00,44.5,35.7,29.67,West,277,3.0,11.0,71,0.00,,OVC017,0.00,VWS V14.01,2013-04-11 18:08:00,
2013-04-11 13:13:00,44.5,36.4,29.67,WNW,285,4.0,12.0,73,0.00,,OVC017,0.00,VWS V14.01,2013-04-11 18:13:00,
2013-04-11 13:18:00,44.5,36.7,29.67,North,5,1.0,12.0,74,0.00,,OVC017,0.00,VWS V14.01,2013-04-11 18:18:00,
2013-04-11 13:23:00,44.8,35.6,29.66,NNW,338,6.0,12.0,70,0.00,,OVC017,0.00,VWS V14.01,2013-04-11 18:23:00,
2013-04-11 13:29:00,44.7,36.2,29.66,NW,304,3.0,12.0,72,0.00,,OVC017,0.00,VWS V14.01,2013-04-11 18:29:00,
2013-04-11 13:30:00,44.8,36.7,29.66,NW,306,2.0,12.0,73,0.00,,CLR,0.00,VWS V14.01,2013-04-11 18:30:00,
2013-04-11 13:34:00,44.9,36.1,29.67,NNE,19,6.0,15.0,71,0.00,,OVC017,0.00,VWS V14.01,2013-04-11 18:34:00,
2013-04-11 13:39:00,45.1,35.9,29.65,NW,312,3.0,15.0,70,0.00,,OVC017,0.00,VWS V14.01,2013-04-11 18:39:00,
2013-04-11 13:44:00,45.8,37.7,29.65,West,274,2.0,15.0,73,0.00,,BKN025,0.00,VWS V14.01,2013-04-11 18:44:00,
2013-04-11 13:49:00,46.7,38.2,29.65,WNW,284,1.0,15.0,72,0.00,,BKN025,0.00,VWS V14.01,2013-04-11 18:49:00,
2013-04-11 13:54:00,47.4,37.4,29.65,WNW,286,10.0,15.0,68,0.00,,BKN025,0.00,VWS V14.01,2013-04-11 18:54:00,
2013-04-11 13:59:00,47.6,36.8,29.65,NNW,346,7.0,15.0,66,0.00,,BKN025,0.00,VWS V14.01,2013-04-11 18:59:00,
2013-04-11 14:00:00,47.5,36.7,29.65,WNW,286,5.0,15.0,66,0.00,,CLR,0.00,VWS V14.01,2013-04-11 19:00:00,
2013-04-11 14:04:00,47.6,37.2,29.65,West,277,6.0,16.0,67,0.00,,BKN025,0.00,VWS V14.01,2013-04-11 19:04:00,
2013-04-11 14:09:00,47.8,37.8,29.65,West,271,6.0,16.0,68,0.00,,BKN025,0.00,VWS V14.01,2013-04-11 19:09:00,
2013-04-11 14:14:00,48.2,37.8,29.64,West,263,11.0,16.0,67,0.00,,BKN025,0.00,VWS V14.01,2013-04-11 19:14:00,
2013-04-11 14:19:00,48.1,38.0,29.64,West,267,4.0,16.0,68,0.00,,BKN025,0.00,VWS V14.01,2013-04-11 19:19:00,
2013-04-11 14:24:00,48.5,38.1,29.64,WNW,284,5.0,16.0,67,0.00,,BKN025,0.00,VWS V14.01,2013-04-11 19:24:00,
2013-04-11 14:29:00,48.8,37.6,29.64,NW,313,14.0,16.0,65,0.00,,BKN025,0.00,VWS V14.01,2013-04-11 19:29:00,
2013-04-11 14:30:00,48.8,37.6,29.64,West,271,4.0,16.0,65,0.00,,CLR,0.00,VWS V14.01,2013-04-11 19:30:00,
2013-04-11 14:34:00,48.8,37.2,29.64,WNW,286,3.0,9.0,64,0.00,,BKN025,0.00,VWS V14.01,2013-04-11 19:34:00,
2013-04-11 14:40:00,48.7,37.1,29.64,West,281,5.0,10.0,64,0.00,,BKN025,0.00,VWS V14.01,2013-04-11 19:40:00,
2013-04-11 14:45:00,49.0,37.0,29.64,WNW,296,4.0,11.0,63,0.00,,SCT025,0.00,VWS V14.01,2013-04-11 19:45:00,
2013-04-11 14:50:00,49.6,37.9,29.64,NNW,336,5.0,11.0,64,0.00,,SCT025,0.00,VWS V14.01,2013-04-11 19:50:00,
2013-04-11 14:55:00,50.1,38.0,29.64,WNW,298,6.0,11.0,63,0.00,,SCT025,0.00,VWS V14.01,2013-04-11 19:55:00,
2013-04-11 15:00:00,50.3,37.0,29.64,WNW,284,2.0,5.0,60,0.00,,SCT025,0.00,VWS V14.01,2013-04-11 20:00:00,
2013-04-11 15:05:00,50.4,37.0,29.63,WNW,285,2.0,10.0,60,0.00,,SCT025,0.00,VWS V14.01,2013-04-11 20:05:00,
2013-04-11 15:10:00,50.8,37.4,29.63,NW,310,6.0,10.0,60,0.00,,SCT025,0.00,VWS V14.01,2013-04-11 20:10:00,
2013-04-11 15:15:00,50.9,38.0,29.62,NW,307,3.0,10.0,61,0.00,,SCT025,0.00,VWS V14.01,2013-04-11 20:15:00,
2013-04-11 15:20:00,51.2,37.8,29.62,WNW,303,6.0,10.0,60,0.00,,SCT025,0.00,VWS V14.01,2013-04-11 20:20:00,
2013-04-11 15:25:00,51.6,37.3,29.61,NW,314,3.0,10.0,58,0.00,,SCT025,0.00,VWS V14.01,2013-04-11 20:25:00,
2013-04-11 15:30:00,52.1,38.2,29.61,WNW,287,1.0,3.0,59,0.00,,SCT025,0.00,VWS V14.01,2013-04-11 20:30:00,
2013-04-11 15:36:00,52.1,36.4,29.61,WNW,294,3.0,9.0,55,0.00,,SCT025,0.00,VWS V14.01,2013-04-11 20:36:00,
2013-04-11 15:41:00,51.8,37.5,29.61,West,275,5.0,9.0,58,0.00,,CLR,0.00,VWS V14.01,2013-04-11 20:41:00,
2013-04-11 15:47:00,52.1,36.9,29.61,West,272,4.0,12.0,56,0.00,,CLR,0.00,VWS V14.01,2013-04-11 20:47:00,
2013-04-11 15:52:00,51.9,36.3,29.61,NW,318,5.0,12.0,55,0.00,,CLR,0.00,VWS V14.01,2013-04-11 20:52:00,
2013-04-11 15:57:00,51.9,36.3,29.61,West,281,7.0,12.0,55,0.00,,CLR,0.00,VWS V14.01,2013-04-11 20:57:00,
2013-04-11 16:00:00,51.8,35.7,29.60,North,5,6.0,12.0,54,0.00,,CLR,0.00,VWS V14.01,2013-04-11 21:00:00,
2013-04-11 16:02:00,51.7,36.1,29.60,West,264,3.0,7.0,55,0.00,,CLR,0.00,VWS V14.01,2013-04-11 21:02:00,
2013-04-11 16:07:00,51.4,35.3,29.60,West,281,3.0,13.0,54,0.00,,CLR,0.00,VWS V14.01,2013-04-11 21:07:00,
2013-04-11 16:12:00,51.6,35.0,29.60,WNW,299,2.0,13.0,53,0.00,,CLR,0.00,VWS V14.01,2013-04-11 21:12:00,
2013-04-11 16:17:00,51.7,35.6,29.60,NW,324,1.0,13.0,54,0.00,,CLR,0.00,VWS V14.01,2013-04-11 21:17:00,
2013-04-11 16:22:00,51.9,36.3,29.59,West,275,4.0,13.0,55,0.00,,CLR,0.00,VWS V14.01,2013-04-11 21:22:00,
2013-04-11 16:27:00,51.9,37.2,29.60,West,261,4.0,13.0,57,0.00,,CLR,0.00,VWS V14.01,2013-04-11 21:27:00,
2013-04-11 16:30:00,51.9,37.2,29.59,West,269,2.0,13.0,57,0.00,,CLR,0.00,VWS V14.01,2013-04-11 21:30:00,
2013-04-11 16:33:00,51.9,35.8,29.59,WNW,297,3.0,7.0,54,0.00,,CLR,0.00,VWS V14.01,2013-04-11 21:33:00,
2013-04-11 16:38:00,51.9,34.8,29.59,WSW,257,2.0,9.0,52,0.00,,CLR,0.00,VWS V14.01,2013-04-11 21:38:00,
2013-04-11 16:43:00,51.9,34.4,29.59,NW,314,7.0,12.0,51,0.00,,CLR,0.00,VWS V14.01,2013-04-11 21:43:00,
2013-04-11 16:48:00,51.8,34.3,29.59,WNW,284,6.0,12.0,51,0.00,,CLR,0.00,VWS V14.01,2013-04-11 21:48:00,
2013-04-11 16:53:00,51.9,33.9,29.59,WNW,300,3.0,12.0,50,0.00,,CLR,0.00,VWS V14.01,2013-04-11 21:53:00,
2013-04-11 16:58:00,51.8,33.8,29.59,WNW,289,3.0,12.0,50,0.00,,CLR,0.00,VWS V14.01,2013-04-11 21:58:00,
2013-04-11 17:00:00,51.7,34.2,29.59,WNW,296,4.0,12.0,51,0.00,,CLR,0.00,VWS V14.01,2013-04-11 22:00:00,
2013-04-11 17:03:00,51.5,33.5,29.59,NNW,336,4.0,11.0,50,0.00,,CLR,0.00,VWS V14.01,2013-04-11 22:03:00,
2013-04-11 17:08:00,51.5,33.5,29.59,WNW,284,4.0,11.0,50,0.00,,CLR,0.00,VWS V14.01,2013-04-11 22:08:00,
2013-04-11 17:13:00,51.9,33.4,29.59,NW,308,11.0,18.0,49,0.00,,CLR,0.00,VWS V14.01,2013-04-11 22:13:00,
2013-04-11 17:18:00,52.2,34.1,29.58,NNW,328,8.0,18.0,50,0.00,,CLR,0.00,VWS V14.01,2013-04-11 22:18:00,
2013-04-11 17:24:00,52.4,33.8,29.58,WNW,300,10.0,18.0,49,0.00,,CLR,0.00,VWS V14.01,2013-04-11 22:24:00,
2013-04-11 17:29:00,52.6,33.0,29.58,WNW,289,2.0,18.0,47,0.00,,CLR,0.00,VWS V14.01,2013-04-11 22:29:00,
2013-04-11 17:30:00,52.6,33.5,29.59,West,281,6.0,18.0,48,0.00,,CLR,0.00,VWS V14.01,2013-04-11 22:30:00,
2013-04-11 17:34:00,52.6,31.9,29.59,WNW,284,5.0,15.0,45,0.00,,CLR,0.00,VWS V14.01,2013-04-11 22:34:00,
2013-04-11 17:39:00,52.8,32.6,29.59,West,263,10.0,15.0,46,0.00,,CLR,0.00,VWS V14.01,2013-04-11 22:39:00,
2013-04-11 17:44:00,52.8,32.6,29.60,WNW,289,3.0,18.0,46,0.00,,CLR,0.00,VWS V14.01,2013-04-11 22:44:00,
2013-04-11 17:49:00,52.8,33.2,29.60,NW,305,2.0,18.0,47,0.00,,CLR,0.00,VWS V14.01,2013-04-11 22:49:00,
2013-04-11 17:54:00,52.8,32.6,29.61,NW,311,7.0,18.0,46,0.00,,CLR,0.00,VWS V14.01,2013-04-11 22:54:00,
2013-04-11 17:59:00,52.7,33.6,29.61,West,264,5.0,18.0,48,0.00,,CLR,0.00,VWS V14.01,2013-04-11 22:59:00,
2013-04-11 18:00:00,52.7,33.6,29.61,WNW,284,5.0,18.0,48,0.00,,CLR,0.00,VWS V14.01,2013-04-11 23:00:00,
2013-04-11 18:05:00,52.6,33.0,29.61,NNW,339,3.0,9.0,47,0.00,,CLR,0.00,VWS V14.01,2013-04-11 23:05:00,
2013-04-11 18:10:00,52.3,32.7,29.61,NNW,331,9.0,15.0,47,0.00,,CLR,0.00,VWS V14.01,2013-04-11 23:10:00,
2013-04-11 18:15:00,52.0,34.5,29.61,WSW,257,3.0,15.0,51,0.00,,CLR,0.00,VWS V14.01,2013-04-11 23:15:00,
2013-04-11 18:20:00,51.9,33.4,29.61,West,281,2.0,15.0,49,0.00,,CLR,0.00,VWS V14.01,2013-04-11 23:20:00,
2013-04-11 18:25:00,52.0,33.5,29.61,WNW,296,9.0,15.0,49,0.00,,CLR,0.00,VWS V14.01,2013-04-11 23:25:00,
2013-04-11 18:30:00,51.9,33.4,29.62,NNW,328,4.0,6.0,49,0.00,,CLR,0.00,VWS V14.01,2013-04-11 23:30:00,
2013-04-11 18:35:00,52.1,34.5,29.62,North,355,1.0,7.0,51,0.00,,CLR,0.00,VWS V14.01,2013-04-11 23:35:00,
2013-04-11 18:40:00,52.1,34.5,29.62,WNW,290,0.0,7.0,51,0.00,,CLR,0.00,VWS V14.01,2013-04-11 23:40:00,
2013-04-11 18:45:00,52.1,33.5,29.62,NW,310,2.0,10.0,49,0.00,,CLR,0.00,VWS V14.01,2013-04-11 23:45:00,
2013-04-11 18:50:00,51.9,33.9,29.62,West,274,6.0,10.0,50,0.00,,CLR,0.00,VWS V14.01,2013-04-11 23:50:00,
2013-04-11 18:55:00,51.6,33.1,29.62,West,274,2.0,10.0,49,0.00,,CLR,0.00,VWS V14.01,2013-04-11 23:55:00,
2013-04-11 19:00:00,51.2,33.2,29.62,NNW,331,4.0,7.0,50,0.00,,CLR,0.00,VWS V14.01,2013-04-12 00:00:00,
2013-04-11 19:06:00,50.8,32.8,29.62,NW,326,5.0,8.0,50,0.00,,CLR,0.00,VWS V14.01,2013-04-12 00:06:00,
2013-04-11 19:11:00,50.4,33.5,29.62,West,277,3.0,8.0,52,0.00,,CLR,0.00,VWS V14.01,2013-04-12 00:11:00,
2013-04-11 19:16:00,50.1,33.2,29.63,WNW,293,2.0,8.0,52,0.00,,CLR,0.00,VWS V14.01,2013-04-12 00:16:00,
2013-04-11 19:21:00,49.8,33.4,29.63,WNW,288,0.0,8.0,53,0.00,,CLR,0.00,VWS V14.01,2013-04-12 00:21:00,
2013-04-11 19:26:00,49.5,33.6,29.63,NW,314,0.0,8.0,54,0.00,,CLR,0.00,VWS V14.01,2013-04-12 00:26:00,
2013-04-11 19:30:00,49.4,33.5,29.64,NNW,328,2.0,8.0,54,0.00,,CLR,0.00,VWS V14.01,2013-04-12 00:30:00,
2013-04-11 19:31:00,49.2,33.7,29.64,NW,309,4.0,4.0,55,0.00,,CLR,0.00,VWS V14.01,2013-04-12 00:31:00,
2013-04-11 19:37:00,49.0,33.5,29.64,NNW,331,1.0,6.0,55,0.00,,CLR,0.00,VWS V14.01,2013-04-12 00:37:00,
2013-04-11 19:42:00,48.7,33.3,29.64,NW,310,1.0,6.0,55,0.00,,CLR,0.00,VWS V14.01,2013-04-12 00:42:00,
2013-04-11 19:47:00,48.4,33.4,29.64,NNW,329,1.0,6.0,56,0.00,,CLR,0.00,VWS V14.01,2013-04-12 00:47:00,
2013-04-11 19:52:00,48.1,33.2,29.64,NW,319,2.0,6.0,56,0.00,,CLR,0.00,VWS V14.01,2013-04-12 00:52:00,
2013-04-11 19:57:00,47.8,32.9,29.64,NW,325,5.0,6.0,56,0.00,,CLR,0.00,VWS V14.01,2013-04-12 00:57:00,
2013-04-11 20:00:00,47.7,33.2,29.64,NW,309,1.0,6.0,57,0.00,,CLR,0.00,VWS V14.01,2013-04-12 01:00:00,
2013-04-11 20:02:00,47.6,33.1,29.65,NW,315,1.0,6.0,57,0.00,,CLR,0.00,VWS V14.01,2013-04-12 01:02:00,
2013-04-11 20:07:00,47.3,32.8,29.65,NNW,329,1.0,8.0,57,0.00,,CLR,0.00,VWS V14.01,2013-04-12 01:07:00,
2013-04-11 20:12:00,47.1,33.1,29.65,NW,320,0.0,8.0,58,0.00,,CLR,0.00,VWS V14.01,2013-04-12 01:12:00,
2013-04-11 20:17:00,46.9,33.3,29.66,NW,321,2.0,8.0,59,0.00,,CLR,0.00,VWS V14.01,2013-04-12 01:17:00,
2013-04-11 20:22:00,46.6,33.0,29.66,NNW,336,2.0,8.0,59,0.00,,CLR,0.00,VWS V14.01,2013-04-12 01:22:00,
2013-04-11 20:27:00,46.3,33.2,29.66,NNW,329,2.0,8.0,60,0.00,,CLR,0.00,VWS V14.01,2013-04-12 01:27:00,
2013-04-11 20:30:00,46.2,33.5,29.66,NW,318,0.0,8.0,61,0.00,,CLR,0.00,VWS V14.01,2013-04-12 01:30:00,
2013-04-11 20:32:00,46.1,33.4,29.66,NW,309,0.0,2.0,61,0.00,,CLR,0.00,VWS V14.01,2013-04-12 01:32:00,
2013-04-11 20:37:00,45.9,33.6,29.67,NW,313,1.0,2.0,62,0.00,,CLR,0.00,VWS V14.01,2013-04-12 01:37:00,
2013-04-11 20:42:00,45.6,33.8,29.67,NW,323,0.0,2.0,63,0.00,,CLR,0.00,VWS V14.01,2013-04-12 01:42:00,
2013-04-11 20:47:00,45.2,34.2,29.67,WNW,302,0.0,4.0,65,0.00,,CLR,0.00,VWS V14.01,2013-04-12 01:47:00,
2013-04-11 20:52:00,44.9,33.5,29.67,NW,319,0.0,4.0,64,0.00,,CLR,0.00,VWS V14.01,2013-04-12 01:52:00,
2013-04-11 20:58:00,44.7,33.7,29.67,NW,319,1.0,4.0,65,0.00,,CLR,0.00,VWS V14.01,2013-04-12 01:58:00,
2013-04-11 21:00:00,44.6,33.6,29.67,NW,319,0.0,4.0,65,0.00,,CLR,0.00,VWS V14.01,2013-04-12 02:00:00,
2013-04-11 21:03:00,44.5,33.5,29.67,NW,318,0.0,0.0,65,0.00,,CLR,0.00,VWS V14.01,2013-04-12 02:03:00,
2013-04-11 21:08:00,44.2,34.0,29.68,NW,318,0.0,0.0,67,0.00,,CLR,0.00,VWS V14.01,2013-04-12 02:08:00,
2013-04-11 21:13:00,44.0,34.1,29.68,NW,323,1.0,3.0,68,0.00,,CLR,0.00,VWS V14.01,2013-04-12 02:13:00,
2013-04-11 21:18:00,43.8,33.6,29.68,WNW,295,0.0,3.0,67,0.00,,CLR,0.00,VWS V14.01,2013-04-12 02:18:00,
2013-04-11 21:23:00,43.8,33.6,29.68,WNW,295,0.0,3.0,67,0.00,,CLR,0.00,VWS V14.01,2013-04-12 02:23:00,
2013-04-11 21:28:00,43.6,33.8,29.68,WNW,301,0.0,3.0,68,0.00,,CLR,0.00,VWS V14.01,2013-04-12 02:28:00,
2013-04-11 21:30:00,43.5,34.0,29.68,WNW,301,0.0,3.0,69,0.00,,CLR,0.00,VWS V14.01,2013-04-12 02:30:00,
2013-04-11 21:33:00,43.4,33.9,29.68,WNW,302,0.0,0.0,69,0.00,,CLR,0.00,VWS V14.01,2013-04-12 02:33:00,
2013-04-11 21:38:00,43.2,33.7,29.68,NW,309,0.0,2.0,69,0.00,,CLR,0.00,VWS V14.01,2013-04-12 02:38:00,
2013-04-11 21:43:00,43.0,33.9,29.68,NW,306,0.0,3.0,70,0.00,,CLR,0.00,VWS V14.01,2013-04-12 02:43:00,
2013-04-11 21:48:00,42.8,33.3,29.69,WNW,296,0.0,3.0,69,0.00,,CLR,0.00,VWS V14.01,2013-04-12 02:48:00,
2013-04-11 21:53:00,42.9,33.1,29.69,NW,314,2.0,6.0,68,0.00,,CLR,0.00,VWS V14.01,2013-04-12 02:53:00,
2013-04-11 21:59:00,43.0,33.2,29.69,NW,308,0.0,6.0,68,0.00,,CLR,0.00,VWS V14.01,2013-04-12 02:59:00,
2013-04-11 22:00:00,43.0,33.5,29.69,NW,313,0.0,6.0,69,0.00,,CLR,0.00,VWS V14.01,2013-04-12 03:00:00,
2013-04-11 22:04:00,43.0,33.2,29.69,WNW,282,0.0,3.0,68,0.00,,CLR,0.00,VWS V14.01,2013-04-12 03:04:00,
2013-04-11 22:09:00,42.9,33.4,29.69,WNW,290,0.0,3.0,69,0.00,,CLR,0.00,VWS V14.01,2013-04-12 03:09:00,
2013-04-11 22:14:00,42.8,33.7,29.69,WNW,290,0.0,3.0,70,0.00,,CLR,0.00,VWS V14.01,2013-04-12 03:14:00,
2013-04-11 22:19:00,42.5,33.4,29.69,NNW,330,1.0,3.0,70,0.00,,CLR,0.00,VWS V14.01,2013-04-12 03:19:00,
2013-04-11 22:24:00,42.3,33.6,29.69,WNW,301,0.0,3.0,71,0.00,,CLR,0.00,VWS V14.01,2013-04-12 03:24:00,
2013-04-11 22:29:00,42.0,33.6,29.69,NW,307,0.0,3.0,72,0.00,,CLR,0.00,VWS V14.01,2013-04-12 03:29:00,
2013-04-11 22:30:00,42.0,33.6,29.69,NW,307,0.0,3.0,72,0.00,,CLR,0.00,VWS V14.01,2013-04-12 03:30:00,
2013-04-11 22:34:00,41.7,33.7,29.69,NW,307,0.0,0.0,73,0.00,,CLR,0.00,VWS V14.01,2013-04-12 03:34:00,
2013-04-11 22:39:00,41.4,33.8,29.69,NW,308,0.0,0.0,74,0.00,,CLR,0.00,VWS V14.01,2013-04-12 03:39:00,
2013-04-11 22:44:00,41.1,33.5,29.69,NW,308,0.0,0.0,74,0.00,,CLR,0.00,VWS V14.01,2013-04-12 03:44:00,
2013-04-11 22:49:00,41.0,33.0,29.69,NNW,327,0.0,2.0,73,0.00,,CLR,0.00,VWS V14.01,2013-04-12 03:49:00,
2013-04-11 22:54:00,40.8,33.8,29.69,NNW,331,0.0,2.0,76,0.00,,CLR,0.00,VWS V14.01,2013-04-12 03:54:00,
2013-04-11 23:00:00,40.6,33.6,29.70,NNW,331,0.0,2.0,76,0.00,,CLR,0.00,VWS V14.01,2013-04-12 04:00:00,
2013-04-11 23:01:00,40.6,33.6,29.70,NNW,331,0.0,0.0,76,0.00,,CLR,0.00,VWS V14.01,2013-04-12 04:01:00,
2013-04-11 23:06:00,40.3,33.3,29.70,NNW,331,0.0,0.0,76,0.00,,CLR,0.00,VWS V14.01,2013-04-12 04:06:00,
2013-04-11 23:11:00,40.0,33.4,29.69,NNW,331,0.0,0.0,77,0.00,,CLR,0.00,VWS V14.01,2013-04-12 04:11:00,
2013-04-11 23:17:00,39.7,33.1,29.69,NNW,331,0.0,0.0,77,0.00,,CLR,0.00,VWS V14.01,2013-04-12 04:17:00,
2013-04-11 23:22:00,39.5,33.2,29.70,NNW,331,0.0,0.0,78,0.00,,CLR,0.00,VWS V14.01,2013-04-12 04:22:00,
2013-04-11 23:27:00,39.2,32.9,29.70,NNW,331,0.0,0.0,78,0.00,,CLR,0.00,VWS V14.01,2013-04-12 04:27:00,
2013-04-11 23:30:00,39.2,32.6,29.69,NNW,331,0.0,0.0,77,0.00,,CLR,0.00,VWS V14.01,2013-04-12 04:30:00,
2013-04-11 23:32:00,39.3,32.7,29.69,NNW,331,0.0,0.0,77,0.00,,CLR,0.00,VWS V14.01,2013-04-12 04:32:00,
2013-04-11 23:37:00,39.5,32.9,29.69,NNW,331,0.0,0.0,77,0.00,,CLR,0.00,VWS V14.01,2013-04-12 04:37:00,
2013-04-11 23:42:00,39.5,33.5,29.69,NNW,331,0.0,0.0,79,0.00,,CLR,0.00,VWS V14.01,2013-04-12 04:42:00,
2013-04-11 23:47:00,39.4,33.4,29.69,NNW,331,0.0,0.0,79,0.00,,CLR,0.00,VWS V14.01,2013-04-12 04:47:00,
2013-04-11 23:52:00,39.2,33.2,29.69,NNW,331,0.0,0.0,79,0.00,,CLR,0.00,VWS V14.01,2013-04-12 04:52:00,
2013-04-11 23:58:00,39.0,33.0,29.69,NNW,331,0.0,0.0,79,0.00,,CLR,0.00,VWS V14.01,2013-04-12 04:58:00,